Des Moines International Airport
KDSM : now visible

Airfield :











YOU CAN JOIN US ON...

 
LOGIN :

Register | Disclaimer

   EN    FR    IT 

 









Legend :    VFR   Marginal VFR   IFR   Intensive IFR   Very Intensive IFR
Visi :
Ceiling :
>= 8 km
>= 3000ft
5 to 8 km
1000 to 3000 ft
1500m to 5 km
500 to 1000 ft
800 to 1500m
200 to 500 ft
< 800m
< 200 ft
Symbols :   Thunderstorms  Fog  Heavy snow  Heavy precipitations  Wind > 20 kt






- Airport Elevation : 958 ft
- IATA code : DSM


KDSM - Des Moines International

CURRENT METAR :
  • 281554Z 02015G21KT 10SM FEW015 FEW040 BKN100 OVC200 21/17 A2989 RMK AO2 PK WND 01026/1523 SLP115 T02060167

EXPIRED METARs :
  • 281517Z 36014G26KT 10SM FEW009 FEW025 SCT060 BKN130 OVC200 21/18 A2988
  • 281454Z 36013G22KT 10SM OVC009 20/18 A2987 RMK AO2 CIG 006V012 SLP109 60013 T02000183 51005
  • 281354Z 34008KT 10SM BKN007 BKN019 OVC110 21/19 A2986 RMK AO2 RAE24 SLP105 P0002 T02060194
  • 281331Z 35008KT 10SM FEW006 FEW040 SCT110 BKN150 OVC250 19/19 A2986

TAF KDSM
Valid from the 28 at 12:00 until the 29 at 12:00 UTC


281136Z 2812/2912 35006KT 6SM -SHRA VCTS BKN020CB OVC050
FM281500 36010G18KT P6SM VCSH OVC060
FM281800 36012G21KT P6SM BKN100
FM290100 34007KT P6SM FEW250
KZMP FIR / North America



MET'MAP, your aeronautical weather chart ! - Copyright ORBIFLY December 2007 - Disclaimer

ORBIFLY MET'MAP TEAM :

Programming & Development : Alexandra Zaïnal
Concept & original design : Baudouin d'Aumeries
Assistance for programming : Marc-Olivier Méhu
Technical & hardware support : Manuel Goepfert

Contact : metmap@orbifly.com




SOURCES & CREDITS :

   NOAA       Earth
Advisory